Update: 15-Jun-2021 16:23Z
35°C
WEATHER FORECAST DUBAI AIRPORT
 
Tuesday, June 15, 2021 (16:24 UTC) 16
Dubai International Airport
Last Updated: 15-Jun-2021 (16:23Z)
Wind Dir/Speed: W at 07 kt
Temperature: 35.3°C
Rel. Humidity: 37 %
Pressure: 996.1 hPa
Visibility: 10000 m
  • METAR OMDB 151600Z 27006KT CAVOK 36/18 Q0995 NOSIG
DUBAI AIRPORT 5 DAY IMPACT:
HIGH:
°C
LOW:
°C
HIGH:
°C
LOW:
°C
HIGH:
°C
LOW:
°C
HIGH:
°C
LOW:
°C
HIGH:
°C
LOW:
°C

DUBAI AIRPORT WEATHER FORECAST FOR 30 HOUR:
DUBAI TAF:
TAF OMDB 151100Z 1512/1618 28012KT 5000 DU NSC
 BECMG 1515/1517 18005KT 8000 NSW
 BECMG 1606/1608 30010KT=
VALID FROM:
2021-06-15 12:00Z
VALID TILL:
2021-06-16 18:00Z
SURFACE WIND:
W'LY 12KT

BECOMING S'LY 05KT FROM 1500Z-1700Z TODAY

BECOMING NW'LY 10KT FROM 0600Z-0800Z WEDNESDAY.
VISIBILITY:
3000-5000 M,
BECOMING 06-09 KM FROM 1500Z-1700Z TODAY.
WEATHER:
SLIGHTLY DUSTY,
BECOMING FINE FROM 1500Z-1700Z TODAY.
CLOUD:
NIL SIGNIFICANT.
TEMPERATURE:
MIN TEMPERATURE 29°C AROUND 0130Z WEDNESDAY

MAX TEMPERATURE 39°C AROUND 0730Z WEDNESDAY.
HUMIDITY:
MAX HUMIDITY 80% AROUND 0130Z WEDNESDAY

MIN HUMIDITY 20% AROUND 0730Z WEDNESDAY.
WIND SHEAR:
NIL SIGNIFICANT.
TEMPERATURE INVERSION:
RISK OF AN 08°C SURFACE TEMPERATURE INVERSION BETWEEN 0000Z-0330Z WEDNESDAY.
COMMENTS:
NONE.